createdAt,value
2022-08-28T00:02:24.230Z,23.02
2022-08-28T00:04:51.804Z,22.91
2022-08-28T00:07:19.287Z,22.92
2022-08-28T00:09:45.776Z,22.83
2022-08-28T00:12:13.233Z,22.70
2022-08-28T00:14:39.722Z,22.75
2022-08-28T00:17:06.224Z,23.01
2022-08-28T00:19:36.636Z,22.98
2022-08-28T00:22:04.906Z,22.78
2022-08-28T00:24:31.410Z,22.76
2022-08-28T00:26:58.819Z,22.46
2022-08-28T00:29:25.344Z,22.57
2022-08-28T00:31:51.830Z,22.51
2022-08-28T00:34:18.320Z,22.60
2022-08-28T00:36:44.810Z,22.58
2022-08-28T00:39:11.293Z,22.50
2022-08-28T00:41:37.798Z,22.39
2022-08-28T00:44:07.746Z,22.59
2022-08-28T00:46:34.265Z,22.71
2022-08-28T00:49:01.690Z,22.68
2022-08-28T00:51:29.107Z,22.64
2022-08-28T00:56:39.802Z,22.53
2022-08-28T00:59:06.293Z,22.34
2022-08-28T01:01:32.878Z,22.19
2022-08-28T01:03:59.382Z,22.21
2022-08-28T01:06:26.779Z,22.31
2022-08-28T01:11:47.066Z,22.08
2022-08-28T01:14:13.569Z,22.05
2022-08-28T01:16:40.053Z,22.07
2022-08-28T01:19:06.559Z,21.97
2022-08-28T01:21:33.885Z,21.76
2022-08-28T01:26:55.136Z,21.63
2022-08-28T01:29:22.574Z,21.66
2022-08-28T01:31:50.041Z,21.85
2022-08-28T01:34:16.550Z,21.72
2022-08-28T01:36:43.955Z,21.59
2022-08-28T01:42:06.593Z,21.71
2022-08-28T01:44:34.012Z,21.64
2022-08-28T01:47:01.443Z,21.59
2022-08-28T01:49:28.868Z,21.68
2022-08-28T01:51:56.265Z,21.45
2022-08-28T01:57:18.128Z,21.37
2022-08-28T01:59:45.087Z,21.51
2022-08-28T02:02:12.545Z,21.43
2022-08-28T02:04:39.112Z,21.44
2022-08-28T02:07:05.645Z,21.55
2022-08-28T02:12:17.304Z,21.65
2022-08-28T02:14:44.708Z,21.58
2022-08-28T02:17:12.204Z,21.68
2022-08-28T02:19:38.694Z,21.63
2022-08-28T02:22:05.175Z,21.46
2022-08-28T02:27:27.774Z,21.66
2022-08-28T02:29:54.260Z,21.68
2022-08-28T02:32:21.676Z,21.58
2022-08-28T02:34:48.153Z,21.56
2022-08-28T02:37:15.542Z,21.43
2022-08-28T02:42:35.957Z,21.47
2022-08-28T02:45:02.506Z,21.42
2022-08-28T02:47:29.013Z,21.24
2022-08-28T02:49:56.426Z,21.42
2022-08-28T02:52:23.838Z,21.35
2022-08-28T02:57:45.121Z,21.18
2022-08-28T03:00:11.647Z,21.17
2022-08-28T03:02:38.204Z,21.20
2022-08-28T03:05:04.726Z,21.21
2022-08-28T03:07:31.212Z,21.39
2022-08-28T03:12:41.647Z,21.21
2022-08-28T03:15:08.122Z,21.36
2022-08-28T03:17:35.526Z,21.32
2022-08-28T03:20:03.155Z,21.10
2022-08-28T03:22:29.655Z,21.06
2022-08-28T03:27:49.777Z,21.04
2022-08-28T03:30:16.258Z,21.03
2022-08-28T03:32:43.679Z,21.20
2022-08-28T03:35:11.094Z,21.19
2022-08-28T03:37:37.583Z,21.17
2022-08-28T03:42:58.083Z,21.27
2022-08-28T03:45:25.907Z,21.15
2022-08-28T03:47:53.188Z,21.19
2022-08-28T03:50:19.865Z,21.23
2022-08-28T03:52:47.330Z,21.25
2022-08-28T03:58:07.963Z,21.07
2022-08-28T04:00:35.342Z,21.05
2022-08-28T04:03:02.765Z,20.83
2022-08-28T04:05:29.337Z,20.73
2022-08-28T04:07:55.810Z,20.83
2022-08-28T04:13:06.253Z,20.81
2022-08-28T04:15:33.675Z,20.76
2022-08-28T04:18:00.156Z,20.83
2022-08-28T04:20:26.623Z,20.94
2022-08-28T04:22:55.096Z,21.00
2022-08-28T04:28:06.118Z,21.08
2022-08-28T04:30:32.598Z,21.09
2022-08-28T04:32:59.076Z,21.12
2022-08-28T04:35:26.494Z,21.18
2022-08-28T04:37:56.467Z,21.06
2022-08-28T04:43:20.286Z,21.18
2022-08-28T04:45:46.810Z,21.46
2022-08-28T04:48:13.721Z,21.63
2022-08-28T04:50:40.508Z,21.54
2022-08-28T04:53:06.998Z,21.52
2022-08-28T04:58:18.378Z,21.55
2022-08-28T05:00:48.870Z,21.67
2022-08-28T05:03:15.407Z,21.65
2022-08-28T05:05:42.801Z,21.76
2022-08-28T05:08:09.347Z,21.81
2022-08-28T05:13:19.991Z,21.99
2022-08-28T05:15:47.622Z,21.96
2022-08-28T05:18:15.068Z,21.99
2022-08-28T05:20:41.537Z,22.11
2022-08-28T05:23:08.970Z,22.14
2022-08-28T05:28:20.587Z,22.18
2022-08-28T05:30:48.022Z,22.29
2022-08-28T05:33:14.522Z,22.37
2022-08-28T05:35:41.914Z,22.41
2022-08-28T05:38:08.399Z,22.39
2022-08-28T05:43:29.556Z,22.49
2022-08-28T05:45:57.057Z,22.39
2022-08-28T05:48:24.505Z,22.36
2022-08-28T05:50:51.882Z,22.38
2022-08-28T05:53:18.355Z,22.29
2022-08-28T05:58:29.967Z,22.37
2022-08-28T06:00:56.449Z,22.39
2022-08-28T06:03:23.852Z,22.48
2022-08-28T06:05:51.249Z,22.36
2022-08-28T06:08:18.631Z,22.48
2022-08-28T06:13:31.167Z,22.37
2022-08-28T06:15:57.750Z,22.28
2022-08-28T06:18:24.398Z,22.21
2022-08-28T06:20:50.871Z,22.35
2022-08-28T06:23:24.228Z,22.36
2022-08-28T06:28:34.797Z,22.40
2022-08-28T06:31:23.393Z,22.45
2022-08-28T06:33:47.798Z,22.53
2022-08-28T06:36:14.276Z,22.60
2022-08-28T06:38:41.669Z,22.61
2022-08-28T06:44:02.352Z,22.88
2022-08-28T06:46:28.818Z,23.04
2022-08-28T06:48:56.176Z,23.04
2022-08-28T06:51:23.210Z,23.00
2022-08-28T06:53:51.593Z,23.04
2022-08-28T06:59:13.162Z,23.23
2022-08-28T07:01:40.648Z,23.36
2022-08-28T07:04:07.150Z,23.46
2022-08-28T07:06:33.630Z,23.51
2022-08-28T07:09:00.093Z,23.54
2022-08-28T07:14:12.375Z,23.71
2022-08-28T07:16:38.855Z,23.81
2022-08-28T07:19:06.287Z,23.79
2022-08-28T07:21:32.767Z,23.99
2022-08-28T07:24:05.546Z,24.09
2022-08-28T07:29:28.166Z,24.28
2022-08-28T07:31:54.637Z,24.21
2022-08-28T07:34:22.032Z,24.40
2022-08-28T07:36:54.371Z,24.39
2022-08-28T07:39:21.713Z,24.59
2022-08-28T07:44:33.991Z,24.67
2022-08-28T07:47:00.746Z,24.55
2022-08-28T07:49:28.242Z,24.42
2022-08-28T07:51:54.743Z,24.39
2022-08-28T07:54:21.230Z,24.37
2022-08-28T07:59:42.927Z,24.40
2022-08-28T08:02:09.664Z,24.41
2022-08-28T08:04:36.338Z,24.41
2022-08-28T08:07:04.054Z,24.43
2022-08-28T08:09:31.674Z,24.43
2022-08-28T08:14:51.794Z,24.47
2022-08-28T08:17:19.213Z,24.50
2022-08-28T08:19:46.604Z,24.53
2022-08-28T08:22:13.134Z,24.57
2022-08-28T08:24:39.625Z,24.58
2022-08-28T08:29:51.909Z,24.63
2022-08-28T08:32:18.397Z,24.65
2022-08-28T08:34:44.909Z,24.64
2022-08-28T08:37:12.328Z,24.67
2022-08-28T08:39:39.830Z,24.70
2022-08-28T08:44:52.290Z,24.73
2022-08-28T08:47:19.697Z,24.92
2022-08-28T08:49:46.191Z,25.11
2022-08-28T08:52:13.608Z,25.17
2022-08-28T08:54:40.106Z,25.28
2022-08-28T09:00:00.467Z,25.45
2022-08-28T09:02:31.396Z,25.46
2022-08-28T09:04:59.058Z,25.51
2022-08-28T09:07:25.538Z,25.57
2022-08-28T09:09:52.061Z,25.63
2022-08-28T09:15:14.573Z,25.71
2022-08-28T09:17:42.017Z,25.78
2022-08-28T09:20:09.473Z,25.80
2022-08-28T09:22:35.998Z,25.78
2022-08-28T09:25:03.378Z,25.82
2022-08-28T09:30:24.584Z,25.44
2022-08-28T09:32:52.035Z,25.31
2022-08-28T09:35:19.441Z,25.25
2022-08-28T09:37:46.925Z,25.23
2022-08-28T09:40:14.427Z,25.20
2022-08-28T09:45:26.017Z,25.19
2022-08-28T09:47:52.527Z,25.17
2022-08-28T09:50:19.966Z,25.17
2022-08-28T09:52:46.478Z,25.15
2022-08-28T09:55:12.968Z,25.17
2022-08-28T10:00:25.269Z,25.75
2022-08-28T10:02:52.686Z,25.75
2022-08-28T10:05:25.767Z,25.87
2022-08-28T10:07:53.341Z,25.91
2022-08-28T10:10:21.468Z,26.02
2022-08-28T10:15:31.869Z,26.04
2022-08-28T10:17:58.352Z,26.07
2022-08-28T10:20:25.739Z,26.00
2022-08-28T10:22:52.240Z,26.04
2022-08-28T10:25:18.735Z,25.94
2022-08-28T10:30:41.026Z,26.23
2022-08-28T10:33:07.547Z,26.53
2022-08-28T10:35:34.934Z,26.31
2022-08-28T10:38:02.331Z,26.23
2022-08-28T10:40:28.853Z,26.34
2022-08-28T10:45:50.137Z,25.63
2022-08-28T10:48:16.688Z,25.58
2022-08-28T10:50:43.150Z,25.54
2022-08-28T10:53:09.611Z,25.50
2022-08-28T10:55:36.092Z,25.47
2022-08-28T11:00:46.941Z,25.48
2022-08-28T11:03:33.179Z,25.48
2022-08-28T11:06:00.477Z,25.48
2022-08-28T11:08:27.851Z,25.47
2022-08-28T11:10:54.560Z,25.47
2022-08-28T11:16:04.890Z,25.47
2022-08-28T11:18:31.361Z,25.47
2022-08-28T11:20:57.804Z,25.47
2022-08-28T11:23:25.141Z,25.47
2022-08-28T11:25:52.531Z,25.47
2022-08-28T11:31:19.082Z,25.50
2022-08-28T11:33:56.150Z,25.49
2022-08-28T11:36:23.499Z,25.46
2022-08-28T11:38:50.920Z,25.45
2022-08-28T11:41:17.367Z,25.47
2022-08-28T11:46:29.418Z,25.45
2022-08-28T11:48:56.785Z,25.45
2022-08-28T11:51:24.070Z,25.46
2022-08-28T11:53:51.322Z,25.48
2022-08-28T11:56:31.390Z,25.50
2022-08-28T12:01:42.880Z,25.45
2022-08-28T12:04:10.166Z,25.44
2022-08-28T12:06:36.603Z,25.40
2022-08-28T12:09:03.931Z,25.42
2022-08-28T12:11:31.185Z,25.39
2022-08-28T12:16:41.826Z,25.41
2022-08-28T12:19:08.276Z,25.39
2022-08-28T12:21:34.767Z,25.38
2022-08-28T12:24:05.288Z,25.37
2022-08-28T12:26:35.454Z,25.36
2022-08-28T12:31:48.026Z,25.35
2022-08-28T12:34:14.518Z,25.35
2022-08-28T12:36:41.784Z,25.35
2022-08-28T12:39:09.054Z,25.36
2022-08-28T12:41:38.262Z,25.37
2022-08-28T12:46:59.319Z,25.36
2022-08-28T12:49:26.585Z,25.36
2022-08-28T12:51:53.845Z,25.36
2022-08-28T12:54:20.262Z,25.36
2022-08-28T12:56:47.536Z,25.35
2022-08-28T13:02:07.911Z,25.35
2022-08-28T13:04:34.499Z,25.36
2022-08-28T13:07:00.946Z,25.36
2022-08-28T13:09:27.384Z,25.36
2022-08-28T13:11:53.821Z,25.35
2022-08-28T13:17:04.084Z,25.35
2022-08-28T13:19:32.514Z,25.36
2022-08-28T13:21:58.960Z,25.35
2022-08-28T13:24:25.376Z,25.36
2022-08-28T13:26:52.622Z,25.36
2022-08-28T13:32:02.839Z,25.36
2022-08-28T13:34:29.267Z,25.35
2022-08-28T13:36:56.589Z,25.35
2022-08-28T13:39:22.988Z,25.35
2022-08-28T13:41:50.298Z,25.36
2022-08-28T13:47:10.441Z,25.36
2022-08-28T13:49:37.691Z,25.37
2022-08-28T13:52:05.056Z,25.37
2022-08-28T13:54:32.368Z,25.37
2022-08-28T13:57:00.599Z,25.37
2022-08-28T14:02:11.822Z,25.36
2022-08-28T14:04:38.291Z,25.36
2022-08-28T14:07:05.555Z,25.37
2022-08-28T14:09:31.982Z,25.36
2022-08-28T14:11:59.203Z,25.37
2022-08-28T14:17:20.479Z,25.36
2022-08-28T14:19:46.971Z,25.36
2022-08-28T14:22:13.457Z,25.36
2022-08-28T14:24:39.880Z,25.36
2022-08-28T14:27:07.185Z,25.37
2022-08-28T14:32:28.954Z,25.36
2022-08-28T14:34:56.285Z,25.36
2022-08-28T14:37:22.839Z,25.37
2022-08-28T14:39:49.274Z,25.36
2022-08-28T14:42:16.637Z,25.36
2022-08-28T14:47:27.493Z,25.37
2022-08-28T14:49:54.042Z,25.37
2022-08-28T14:52:21.400Z,25.39
2022-08-28T14:54:49.708Z,25.39
2022-08-28T14:57:16.980Z,25.41
2022-08-28T15:02:37.638Z,25.42
2022-08-28T15:05:05.060Z,25.42
2022-08-28T15:07:31.525Z,25.43
2022-08-28T15:09:57.992Z,25.43
2022-08-28T15:12:25.356Z,25.43
2022-08-28T15:17:47.847Z,25.45
2022-08-28T15:20:15.307Z,25.44
2022-08-28T15:22:42.675Z,25.44
2022-08-28T15:25:09.188Z,25.44
2022-08-28T15:27:35.674Z,25.45
2022-08-28T15:32:46.318Z,25.46
2022-08-28T15:35:13.690Z,25.46
2022-08-28T15:37:41.052Z,25.48
2022-08-28T15:40:07.573Z,25.62
2022-08-28T15:42:35.013Z,25.62
2022-08-28T15:47:56.176Z,25.62
2022-08-28T15:50:22.658Z,25.64
2022-08-28T15:52:50.163Z,25.66
2022-08-28T15:55:19.857Z,25.67
2022-08-28T15:57:46.330Z,25.70
2022-08-28T16:03:06.636Z,25.73
2022-08-28T16:05:34.094Z,25.72
2022-08-28T16:08:07.051Z,25.75
2022-08-28T16:10:34.454Z,25.74
2022-08-28T16:13:00.944Z,25.74
2022-08-28T16:18:21.486Z,25.72
2022-08-28T16:20:48.892Z,25.65
2022-08-28T16:23:15.347Z,25.83
2022-08-28T16:25:42.820Z,26.07
2022-08-28T16:28:10.300Z,26.23
2022-08-28T16:33:22.551Z,26.19
2022-08-28T16:35:56.072Z,26.32
2022-08-28T16:38:22.815Z,26.32
2022-08-28T16:40:49.295Z,26.42
2022-08-28T16:43:16.704Z,26.47
2022-08-28T16:48:27.833Z,26.45
2022-08-28T16:50:55.236Z,26.48
2022-08-28T16:53:27.114Z,26.52
2022-08-28T16:55:54.707Z,26.59
2022-08-28T16:58:21.407Z,26.65
2022-08-28T17:03:43.139Z,26.61
2022-08-28T17:06:09.640Z,26.58
2022-08-28T17:08:36.116Z,26.47
2022-08-28T17:11:03.525Z,26.40
2022-08-28T17:13:30.009Z,26.31
2022-08-28T17:18:52.556Z,26.04
2022-08-28T17:21:19.350Z,26.01
2022-08-28T17:23:46.743Z,25.98
2022-08-28T17:26:13.212Z,26.01
2022-08-28T17:28:39.705Z,25.98
2022-08-28T17:33:51.316Z,26.01
2022-08-28T17:36:30.753Z,25.94
2022-08-28T17:39:00.344Z,25.97
2022-08-28T17:41:26.816Z,25.95
2022-08-28T17:43:53.290Z,25.83
2022-08-28T17:49:04.017Z,25.35
2022-08-28T17:51:41.808Z,25.25
2022-08-28T17:54:09.537Z,25.13
2022-08-28T17:56:36.327Z,25.12
2022-08-28T17:59:02.778Z,24.94
2022-08-28T18:04:24.736Z,24.92
2022-08-28T18:06:51.326Z,24.99
2022-08-28T18:09:18.621Z,24.91
2022-08-28T18:11:45.084Z,24.79
2022-08-28T18:14:12.359Z,24.79
2022-08-28T18:19:32.615Z,24.74
2022-08-28T18:22:00.941Z,24.89
2022-08-28T18:24:28.166Z,24.71
2022-08-28T18:27:01.231Z,24.67
2022-08-28T18:29:29.640Z,24.80
2022-08-28T18:34:39.913Z,24.69
2022-08-28T18:37:06.392Z,24.69
2022-08-28T18:39:36.354Z,24.65
2022-08-28T18:42:04.556Z,24.55
2022-08-28T18:44:31.069Z,24.38
2022-08-28T18:49:43.076Z,24.50
2022-08-28T18:52:12.286Z,24.55
2022-08-28T18:54:38.717Z,24.55
2022-08-28T18:57:05.608Z,24.35
2022-08-28T18:59:32.113Z,24.43
2022-08-28T19:04:42.412Z,24.36
2022-08-28T19:07:08.778Z,24.43
2022-08-28T19:09:36.052Z,24.28
2022-08-28T19:12:03.310Z,24.31
2022-08-28T19:14:29.684Z,24.26
2022-08-28T19:19:50.095Z,24.24
2022-08-28T19:22:16.481Z,24.27
2022-08-28T19:24:42.834Z,24.26
2022-08-28T19:27:10.071Z,24.30
2022-08-28T19:29:37.308Z,24.28
2022-08-28T19:34:58.349Z,24.11
2022-08-28T19:37:24.755Z,24.16
2022-08-28T19:39:51.143Z,24.06
2022-08-28T19:42:22.959Z,24.06
2022-08-28T19:44:51.786Z,24.07
2022-08-28T19:50:10.269Z,24.14
2022-08-28T19:52:36.680Z,24.02
2022-08-28T19:55:03.983Z,24.20
2022-08-28T19:57:30.361Z,24.17
2022-08-28T19:59:56.741Z,24.14
2022-08-28T20:02:23.131Z,24.32
2022-08-28T20:04:49.526Z,24.37
2022-08-28T20:09:53.040Z,24.29
2022-08-28T20:12:19.468Z,24.33
2022-08-28T20:14:45.851Z,24.28
2022-08-28T20:17:12.242Z,24.31
2022-08-28T20:19:38.859Z,24.13
2022-08-28T20:22:06.098Z,24.13
2022-08-28T20:24:32.481Z,23.89
2022-08-28T20:26:58.831Z,24.13
2022-08-28T20:29:26.101Z,24.25
2022-08-28T20:31:52.451Z,24.12
2022-08-28T20:34:18.838Z,24.30
2022-08-28T20:36:46.066Z,24.46
2022-08-28T20:39:13.314Z,24.69
2022-08-28T20:41:39.711Z,24.54
2022-08-28T20:44:06.102Z,24.62
2022-08-28T20:46:34.977Z,24.77
2022-08-28T20:49:03.580Z,25.19
2022-08-28T20:51:29.974Z,25.52
2022-08-28T20:53:56.363Z,25.16
2022-08-28T20:56:22.800Z,25.07
2022-08-28T20:58:49.240Z,25.22
2022-08-28T21:01:15.690Z,25.10
2022-08-28T21:03:42.143Z,24.97
2022-08-28T21:06:09.383Z,24.53
2022-08-28T21:08:35.771Z,24.55
2022-08-28T21:11:02.159Z,24.51
2022-08-28T21:13:28.523Z,24.29
2022-08-28T21:15:54.910Z,24.38
2022-08-28T21:18:21.282Z,24.45
2022-08-28T21:20:49.853Z,24.49
2022-08-28T21:23:16.213Z,24.51
2022-08-28T21:25:42.610Z,24.39
2022-08-28T21:28:09.907Z,24.31
2022-08-28T21:30:36.365Z,24.33
2022-08-28T21:33:03.621Z,24.28
2022-08-28T21:35:29.995Z,24.15
2022-08-28T21:37:56.368Z,24.27
2022-08-28T21:40:23.674Z,24.25
2022-08-28T21:42:50.063Z,24.28
2022-08-28T21:45:17.286Z,24.03
2022-08-28T21:47:43.701Z,24.25
2022-08-28T21:50:10.070Z,24.26
2022-08-28T21:52:36.445Z,24.07
2022-08-28T21:55:02.831Z,24.24
2022-08-28T21:57:29.208Z,24.02
2022-08-28T21:59:56.456Z,24.18
2022-08-28T22:02:22.874Z,24.32
2022-08-28T22:04:49.305Z,24.38
2022-08-28T22:07:16.530Z,24.05
2022-08-28T22:09:42.910Z,24.04
2022-08-28T22:12:10.163Z,24.11
2022-08-28T22:14:36.542Z,24.16
2022-08-28T22:17:06.474Z,24.11
2022-08-28T22:19:35.264Z,24.02
2022-08-28T22:22:01.650Z,23.85
2022-08-28T22:24:28.016Z,24.04
2022-08-28T22:26:57.565Z,23.90
2022-08-28T22:29:24.147Z,23.97
2022-08-28T22:31:50.572Z,24.00
2022-08-28T22:34:16.982Z,24.07
2022-08-28T22:36:43.359Z,24.13
2022-08-28T22:39:10.626Z,24.11
2022-08-28T22:41:37.832Z,24.11
2022-08-28T22:44:05.043Z,24.13
2022-08-28T22:46:31.435Z,24.14
2022-08-28T22:48:57.792Z,24.17
2022-08-28T22:51:24.193Z,24.07
2022-08-28T22:53:50.578Z,24.05
2022-08-28T22:56:16.927Z,23.97
2022-08-28T22:58:43.291Z,23.94
2022-08-28T23:01:12.499Z,24.06
2022-08-28T23:03:42.623Z,24.13
2022-08-28T23:06:11.862Z,24.08
2022-08-28T23:08:38.250Z,24.03
2022-08-28T23:11:04.628Z,24.05
2022-08-28T23:13:31.042Z,23.90
2022-08-28T23:15:57.485Z,23.83
2022-08-28T23:18:24.003Z,23.62
2022-08-28T23:20:50.681Z,23.51
2022-08-28T23:23:18.049Z,23.60
2022-08-28T23:25:44.535Z,23.51
2022-08-28T23:28:11.793Z,23.23
2022-08-28T23:30:38.303Z,23.21
2022-08-28T23:33:04.947Z,23.32
2022-08-28T23:35:35.025Z,23.37
2022-08-28T23:38:03.358Z,23.36
2022-08-28T23:40:29.901Z,23.59
2022-08-28T23:42:56.422Z,23.76
2022-08-28T23:45:22.910Z,23.81
2022-08-28T23:47:51.512Z,23.83
2022-08-28T23:50:17.968Z,23.87
2022-08-28T23:52:46.278Z,23.93
2022-08-28T23:55:12.727Z,23.93
2022-08-28T23:57:39.750Z,23.98
